sensor_id;sensor_type;location;lat;lon;timestamp;P1;durP1;ratioP1;P2;durP2;ratioP2
23001;SDS011;11667;51.706;4.856;2022-09-09T00:09:27;10.80;;;5.17;;
23001;SDS011;11667;51.706;4.856;2022-09-09T00:12:00;14.13;;;5.75;;
23001;SDS011;11667;51.706;4.856;2022-09-09T00:17:46;9.90;;;5.83;;
23001;SDS011;11667;51.706;4.856;2022-09-09T00:25:46;10.85;;;6.05;;
23001;SDS011;11667;51.706;4.856;2022-09-09T00:28:20;13.98;;;7.20;;
23001;SDS011;11667;51.706;4.856;2022-09-09T00:30:54;15.15;;;6.92;;
23001;SDS011;11667;51.706;4.856;2022-09-09T00:33:25;14.98;;;7.08;;
23001;SDS011;11667;51.706;4.856;2022-09-09T00:35:59;15.58;;;7.12;;
23001;SDS011;11667;51.706;4.856;2022-09-09T00:38:40;13.13;;;7.20;;
23001;SDS011;11667;51.706;4.856;2022-09-09T00:41:20;15.60;;;7.40;;
23001;SDS011;11667;51.706;4.856;2022-09-09T00:46:59;19.32;;;9.05;;
23001;SDS011;11667;51.706;4.856;2022-09-09T00:49:44;18.73;;;8.58;;
23001;SDS011;11667;51.706;4.856;2022-09-09T00:54:47;19.20;;;8.83;;
23001;SDS011;11667;51.706;4.856;2022-09-09T00:57:26;19.67;;;9.55;;
23001;SDS011;11667;51.706;4.856;2022-09-09T01:00:18;20.65;;;9.90;;
23001;SDS011;11667;51.706;4.856;2022-09-09T01:11:22;22.52;;;10.48;;
23001;SDS011;11667;51.706;4.856;2022-09-09T01:14:09;22.42;;;10.35;;
23001;SDS011;11667;51.706;4.856;2022-09-09T01:16:54;21.25;;;9.98;;
23001;SDS011;11667;51.706;4.856;2022-09-09T01:19:33;20.97;;;9.65;;
23001;SDS011;11667;51.706;4.856;2022-09-09T01:25:26;19.40;;;9.25;;
23001;SDS011;11667;51.706;4.856;2022-09-09T01:28:20;15.15;;;9.23;;
23001;SDS011;11667;51.706;4.856;2022-09-09T01:30:52;18.40;;;9.33;;
23001;SDS011;11667;51.706;4.856;2022-09-09T01:33:24;20.68;;;9.60;;
23001;SDS011;11667;51.706;4.856;2022-09-09T01:38:42;16.85;;;9.50;;
23001;SDS011;11667;51.706;4.856;2022-09-09T01:41:11;19.57;;;9.20;;
23001;SDS011;11667;51.706;4.856;2022-09-09T01:43:57;15.95;;;9.35;;
23001;SDS011;11667;51.706;4.856;2022-09-09T01:46:28;16.85;;;9.68;;
23001;SDS011;11667;51.706;4.856;2022-09-09T01:48:59;16.77;;;9.23;;
23001;SDS011;11667;51.706;4.856;2022-09-09T01:51:31;21.55;;;9.88;;
23001;SDS011;11667;51.706;4.856;2022-09-09T01:54:03;18.10;;;9.75;;
23001;SDS011;11667;51.706;4.856;2022-09-09T02:04:54;18.70;;;9.00;;
23001;SDS011;11667;51.706;4.856;2022-09-09T02:07:41;17.82;;;8.53;;
23001;SDS011;11667;51.706;4.856;2022-09-09T02:13:00;16.57;;;7.95;;
23001;SDS011;11667;51.706;4.856;2022-09-09T02:15:34;14.00;;;8.45;;
23001;SDS011;11667;51.706;4.856;2022-09-09T02:18:04;15.65;;;7.33;;
23001;SDS011;11667;51.706;4.856;2022-09-09T02:20:37;14.45;;;7.08;;
23001;SDS011;11667;51.706;4.856;2022-09-09T02:23:07;18.02;;;7.40;;
23001;SDS011;11667;51.706;4.856;2022-09-09T02:25:38;12.58;;;6.62;;
23001;SDS011;11667;51.706;4.856;2022-09-09T02:28:14;13.45;;;6.20;;
23001;SDS011;11667;51.706;4.856;2022-09-09T02:30:44;13.20;;;6.12;;
23001;SDS011;11667;51.706;4.856;2022-09-09T02:33:16;14.43;;;6.50;;
23001;SDS011;11667;51.706;4.856;2022-09-09T02:35:48;14.83;;;6.80;;
23001;SDS011;11667;51.706;4.856;2022-09-09T02:38:20;11.80;;;6.55;;
23001;SDS011;11667;51.706;4.856;2022-09-09T02:43:22;13.20;;;7.00;;
23001;SDS011;11667;51.706;4.856;2022-09-09T02:51:57;12.58;;;7.30;;
23001;SDS011;11667;51.706;4.856;2022-09-09T02:54:32;14.43;;;7.22;;
23001;SDS011;11667;51.706;4.856;2022-09-09T02:59:45;15.10;;;7.40;;
23001;SDS011;11667;51.706;4.856;2022-09-09T03:02:16;15.03;;;7.25;;
23001;SDS011;11667;51.706;4.856;2022-09-09T03:04:48;15.87;;;7.43;;
23001;SDS011;11667;51.706;4.856;2022-09-09T03:07:21;14.25;;;6.62;;
23001;SDS011;11667;51.706;4.856;2022-09-09T03:09:51;21.17;;;7.10;;
23001;SDS011;11667;51.706;4.856;2022-09-09T03:12:23;13.00;;;6.30;;
23001;SDS011;11667;51.706;4.856;2022-09-09T03:14:52;15.72;;;6.97;;
23001;SDS011;11667;51.706;4.856;2022-09-09T03:17:23;14.70;;;6.50;;
23001;SDS011;11667;51.706;4.856;2022-09-09T03:19:53;15.88;;;5.97;;
23001;SDS011;11667;51.706;4.856;2022-09-09T03:22:23;12.37;;;6.08;;
23001;SDS011;11667;51.706;4.856;2022-09-09T03:24:54;16.27;;;6.58;;
23001;SDS011;11667;51.706;4.856;2022-09-09T03:27:23;14.68;;;6.28;;
23001;SDS011;11667;51.706;4.856;2022-09-09T03:29:53;14.95;;;6.35;;
23001;SDS011;11667;51.706;4.856;2022-09-09T03:32:24;15.85;;;6.65;;
23001;SDS011;11667;51.706;4.856;2022-09-09T03:34:54;12.63;;;6.37;;
23001;SDS011;11667;51.706;4.856;2022-09-09T03:37:24;14.55;;;6.45;;
23001;SDS011;11667;51.706;4.856;2022-09-09T03:39:54;12.55;;;6.70;;
23001;SDS011;11667;51.706;4.856;2022-09-09T03:42:24;15.43;;;6.60;;
23001;SDS011;11667;51.706;4.856;2022-09-09T03:44:54;14.05;;;6.35;;
23001;SDS011;11667;51.706;4.856;2022-09-09T03:47:25;19.12;;;6.55;;
23001;SDS011;11667;51.706;4.856;2022-09-09T03:49:56;12.95;;;5.65;;
23001;SDS011;11667;51.706;4.856;2022-09-09T03:52:25;14.00;;;6.25;;
23001;SDS011;11667;51.706;4.856;2022-09-09T03:54:55;15.20;;;6.35;;
23001;SDS011;11667;51.706;4.856;2022-09-09T03:57:24;15.75;;;5.92;;
23001;SDS011;11667;51.706;4.856;2022-09-09T03:59:54;13.53;;;5.85;;
23001;SDS011;11667;51.706;4.856;2022-09-09T04:02:24;16.57;;;6.33;;
23001;SDS011;11667;51.706;4.856;2022-09-09T04:04:53;17.98;;;6.58;;
23001;SDS011;11667;51.706;4.856;2022-09-09T04:07:24;14.30;;;6.00;;
23001;SDS011;11667;51.706;4.856;2022-09-09T04:09:55;16.35;;;6.28;;
23001;SDS011;11667;51.706;4.856;2022-09-09T04:12:25;19.05;;;6.83;;
23001;SDS011;11667;51.706;4.856;2022-09-09T04:14:55;14.78;;;5.95;;
23001;SDS011;11667;51.706;4.856;2022-09-09T04:17:25;14.45;;;6.20;;
23001;SDS011;11667;51.706;4.856;2022-09-09T04:19:54;14.68;;;6.78;;
23001;SDS011;11667;51.706;4.856;2022-09-09T04:22:24;15.48;;;6.92;;
23001;SDS011;11667;51.706;4.856;2022-09-09T04:24:54;16.70;;;6.58;;
23001;SDS011;11667;51.706;4.856;2022-09-09T04:27:23;14.35;;;6.35;;
23001;SDS011;11667;51.706;4.856;2022-09-09T04:29:53;15.28;;;6.70;;
23001;SDS011;11667;51.706;4.856;2022-09-09T04:32:24;18.50;;;6.17;;
23001;SDS011;11667;51.706;4.856;2022-09-09T04:34:57;17.40;;;6.25;;
23001;SDS011;11667;51.706;4.856;2022-09-09T04:37:27;18.52;;;6.00;;
23001;SDS011;11667;51.706;4.856;2022-09-09T04:39:57;16.37;;;6.47;;
23001;SDS011;11667;51.706;4.856;2022-09-09T04:42:29;13.72;;;6.15;;
23001;SDS011;11667;51.706;4.856;2022-09-09T04:44:59;18.17;;;6.53;;
23001;SDS011;11667;51.706;4.856;2022-09-09T04:47:29;14.40;;;5.53;;
23001;SDS011;11667;51.706;4.856;2022-09-09T04:49:59;14.95;;;6.47;;
23001;SDS011;11667;51.706;4.856;2022-09-09T04:52:29;17.95;;;6.55;;
23001;SDS011;11667;51.706;4.856;2022-09-09T04:54:58;14.45;;;5.62;;
23001;SDS011;11667;51.706;4.856;2022-09-09T04:57:28;15.70;;;6.30;;
23001;SDS011;11667;51.706;4.856;2022-09-09T04:59:59;16.07;;;6.17;;
23001;SDS011;11667;51.706;4.856;2022-09-09T05:02:32;16.30;;;6.35;;
23001;SDS011;11667;51.706;4.856;2022-09-09T05:05:01;17.10;;;5.92;;
23001;SDS011;11667;51.706;4.856;2022-09-09T05:07:31;15.63;;;6.42;;
23001;SDS011;11667;51.706;4.856;2022-09-09T05:10:00;17.15;;;6.80;;
23001;SDS011;11667;51.706;4.856;2022-09-09T05:12:32;14.93;;;5.83;;
23001;SDS011;11667;51.706;4.856;2022-09-09T05:15:02;18.52;;;6.28;;
23001;SDS011;11667;51.706;4.856;2022-09-09T05:17:32;15.83;;;6.15;;
23001;SDS011;11667;51.706;4.856;2022-09-09T05:20:01;17.12;;;6.08;;
23001;SDS011;11667;51.706;4.856;2022-09-09T05:22:33;20.33;;;6.17;;
23001;SDS011;11667;51.706;4.856;2022-09-09T05:25:03;15.30;;;6.15;;
23001;SDS011;11667;51.706;4.856;2022-09-09T05:27:36;202.18;;;16.12;;
23001;SDS011;11667;51.706;4.856;2022-09-09T05:32:34;16.10;;;5.85;;
23001;SDS011;11667;51.706;4.856;2022-09-09T05:35:04;21.35;;;6.55;;
23001;SDS011;11667;51.706;4.856;2022-09-09T05:37:34;20.10;;;5.90;;
23001;SDS011;11667;51.706;4.856;2022-09-09T05:40:04;18.67;;;6.37;;
23001;SDS011;11667;51.706;4.856;2022-09-09T05:42:34;20.35;;;6.30;;
23001;SDS011;11667;51.706;4.856;2022-09-09T05:45:04;23.18;;;6.50;;
23001;SDS011;11667;51.706;4.856;2022-09-09T05:47:35;18.37;;;7.05;;
23001;SDS011;11667;51.706;4.856;2022-09-09T05:50:07;29.97;;;6.70;;
23001;SDS011;11667;51.706;4.856;2022-09-09T05:52:36;21.25;;;6.37;;
23001;SDS011;11667;51.706;4.856;2022-09-09T05:55:07;16.87;;;6.00;;
23001;SDS011;11667;51.706;4.856;2022-09-09T05:57:37;17.98;;;5.70;;
23001;SDS011;11667;51.706;4.856;2022-09-09T06:00:07;18.05;;;5.45;;
23001;SDS011;11667;51.706;4.856;2022-09-09T06:02:39;17.57;;;5.87;;
23001;SDS011;11667;51.706;4.856;2022-09-09T06:05:10;16.93;;;5.60;;
23001;SDS011;11667;51.706;4.856;2022-09-09T06:07:40;14.60;;;5.47;;
23001;SDS011;11667;51.706;4.856;2022-09-09T06:10:11;14.83;;;5.12;;
23001;SDS011;11667;51.706;4.856;2022-09-09T06:12:41;14.98;;;5.20;;
23001;SDS011;11667;51.706;4.856;2022-09-09T06:15:11;18.55;;;5.37;;
23001;SDS011;11667;51.706;4.856;2022-09-09T06:17:41;14.95;;;4.83;;
23001;SDS011;11667;51.706;4.856;2022-09-09T06:20:12;14.25;;;4.70;;
23001;SDS011;11667;51.706;4.856;2022-09-09T06:22:41;17.23;;;4.80;;
23001;SDS011;11667;51.706;4.856;2022-09-09T06:25:12;15.95;;;4.45;;
23001;SDS011;11667;51.706;4.856;2022-09-09T06:27:42;18.10;;;4.60;;
23001;SDS011;11667;51.706;4.856;2022-09-09T06:30:11;12.65;;;4.53;;
23001;SDS011;11667;51.706;4.856;2022-09-09T06:32:43;11.63;;;4.20;;
23001;SDS011;11667;51.706;4.856;2022-09-09T06:35:13;11.88;;;4.78;;
23001;SDS011;11667;51.706;4.856;2022-09-09T06:37:48;15.18;;;4.60;;
23001;SDS011;11667;51.706;4.856;2022-09-09T06:40:15;17.95;;;5.58;;
23001;SDS011;11667;51.706;4.856;2022-09-09T06:42:45;14.33;;;4.90;;
23001;SDS011;11667;51.706;4.856;2022-09-09T06:45:20;10.45;;;4.65;;
23001;SDS011;11667;51.706;4.856;2022-09-09T06:47:51;16.02;;;5.65;;
23001;SDS011;11667;51.706;4.856;2022-09-09T06:50:24;12.98;;;4.92;;
23001;SDS011;11667;51.706;4.856;2022-09-09T06:52:53;16.87;;;4.83;;
23001;SDS011;11667;51.706;4.856;2022-09-09T06:55:23;16.12;;;5.60;;
23001;SDS011;11667;51.706;4.856;2022-09-09T06:57:52;18.77;;;5.03;;
23001;SDS011;11667;51.706;4.856;2022-09-09T07:00:22;14.00;;;5.37;;
23001;SDS011;11667;51.706;4.856;2022-09-09T07:02:53;16.37;;;5.62;;
23001;SDS011;11667;51.706;4.856;2022-09-09T07:05:22;18.15;;;5.42;;
23001;SDS011;11667;51.706;4.856;2022-09-09T07:07:53;16.20;;;5.25;;
23001;SDS011;11667;51.706;4.856;2022-09-09T07:10:23;16.45;;;6.25;;
23001;SDS011;11667;51.706;4.856;2022-09-09T07:12:52;14.13;;;6.45;;
23001;SDS011;11667;51.706;4.856;2022-09-09T07:15:23;18.75;;;6.30;;
23001;SDS011;11667;51.706;4.856;2022-09-09T07:17:54;20.25;;;6.40;;
23001;SDS011;11667;51.706;4.856;2022-09-09T07:20:24;15.65;;;5.85;;
23001;SDS011;11667;51.706;4.856;2022-09-09T07:22:54;15.30;;;5.95;;
23001;SDS011;11667;51.706;4.856;2022-09-09T07:25:25;10.95;;;4.67;;
23001;SDS011;11667;51.706;4.856;2022-09-09T07:27:56;13.28;;;5.17;;
23001;SDS011;11667;51.706;4.856;2022-09-09T07:30:25;12.30;;;4.33;;
23001;SDS011;11667;51.706;4.856;2022-09-09T07:32:57;14.10;;;4.70;;
23001;SDS011;11667;51.706;4.856;2022-09-09T07:35:28;12.68;;;5.00;;
23001;SDS011;11667;51.706;4.856;2022-09-09T07:37:57;11.73;;;4.65;;
23001;SDS011;11667;51.706;4.856;2022-09-09T07:40:29;10.43;;;4.57;;
23001;SDS011;11667;51.706;4.856;2022-09-09T07:42:58;9.25;;;4.37;;
23001;SDS011;11667;51.706;4.856;2022-09-09T07:45:28;15.93;;;4.58;;
23001;SDS011;11667;51.706;4.856;2022-09-09T07:47:59;12.60;;;4.40;;
23001;SDS011;11667;51.706;4.856;2022-09-09T07:50:29;16.93;;;4.70;;
23001;SDS011;11667;51.706;4.856;2022-09-09T07:52:59;16.60;;;4.78;;
23001;SDS011;11667;51.706;4.856;2022-09-09T07:55:30;12.43;;;4.87;;
23001;SDS011;11667;51.706;4.856;2022-09-09T07:57:59;16.57;;;4.60;;
23001;SDS011;11667;51.706;4.856;2022-09-09T08:00:28;12.88;;;5.45;;
23001;SDS011;11667;51.706;4.856;2022-09-09T08:02:58;15.50;;;5.40;;
23001;SDS011;11667;51.706;4.856;2022-09-09T08:05:29;17.48;;;5.70;;
23001;SDS011;11667;51.706;4.856;2022-09-09T08:07:58;14.55;;;5.55;;
23001;SDS011;11667;51.706;4.856;2022-09-09T08:10:28;11.83;;;5.05;;
23001;SDS011;11667;51.706;4.856;2022-09-09T08:12:58;13.15;;;5.22;;
23001;SDS011;11667;51.706;4.856;2022-09-09T08:15:29;15.03;;;4.83;;
23001;SDS011;11667;51.706;4.856;2022-09-09T08:17:58;15.15;;;5.10;;
23001;SDS011;11667;51.706;4.856;2022-09-09T08:20:28;15.60;;;4.58;;
23001;SDS011;11667;51.706;4.856;2022-09-09T08:22:58;12.50;;;4.65;;
23001;SDS011;11667;51.706;4.856;2022-09-09T08:25:28;13.43;;;4.78;;
23001;SDS011;11667;51.706;4.856;2022-09-09T08:27:58;10.53;;;4.22;;
23001;SDS011;11667;51.706;4.856;2022-09-09T08:30:29;11.95;;;4.15;;
23001;SDS011;11667;51.706;4.856;2022-09-09T08:32:58;12.28;;;4.30;;
23001;SDS011;11667;51.706;4.856;2022-09-09T08:35:28;16.35;;;4.85;;
23001;SDS011;11667;51.706;4.856;2022-09-09T08:37:59;19.70;;;5.15;;
23001;SDS011;11667;51.706;4.856;2022-09-09T08:40:32;11.80;;;4.15;;
23001;SDS011;11667;51.706;4.856;2022-09-09T08:43:02;13.90;;;4.92;;
23001;SDS011;11667;51.706;4.856;2022-09-09T08:45:41;15.32;;;4.37;;
23001;SDS011;11667;51.706;4.856;2022-09-09T08:48:22;15.13;;;4.80;;
23001;SDS011;11667;51.706;4.856;2022-09-09T08:51:06;18.65;;;4.62;;
23001;SDS011;11667;51.706;4.856;2022-09-09T08:53:42;16.12;;;4.40;;
23001;SDS011;11667;51.706;4.856;2022-09-09T08:56:14;15.58;;;3.83;;
23001;SDS011;11667;51.706;4.856;2022-09-09T08:58:48;13.65;;;4.78;;
23001;SDS011;11667;51.706;4.856;2022-09-09T09:01:53;12.88;;;3.90;;
23001;SDS011;11667;51.706;4.856;2022-09-09T09:04:45;11.73;;;3.67;;
23001;SDS011;11667;51.706;4.856;2022-09-09T09:07:22;15.18;;;3.65;;
23001;SDS011;11667;51.706;4.856;2022-09-09T09:12:46;12.23;;;3.10;;
23001;SDS011;11667;51.706;4.856;2022-09-09T09:15:23;13.60;;;3.55;;
23001;SDS011;11667;51.706;4.856;2022-09-09T09:17:50;9.80;;;3.45;;
23001;SDS011;11667;51.706;4.856;2022-09-09T09:20:27;13.38;;;3.75;;
23001;SDS011;11667;51.706;4.856;2022-09-09T09:22:58;13.22;;;3.90;;
23001;SDS011;11667;51.706;4.856;2022-09-09T09:25:35;11.80;;;4.20;;
23001;SDS011;11667;51.706;4.856;2022-09-09T09:31:03;13.80;;;4.53;;
23001;SDS011;11667;51.706;4.856;2022-09-09T09:33:35;12.45;;;5.00;;
23001;SDS011;11667;51.706;4.856;2022-09-09T09:36:14;14.95;;;4.15;;
23001;SDS011;11667;51.706;4.856;2022-09-09T09:41:34;13.43;;;4.25;;
23001;SDS011;11667;51.706;4.856;2022-09-09T09:44:00;16.27;;;4.33;;
23001;SDS011;11667;51.706;4.856;2022-09-09T09:46:32;14.98;;;4.20;;
23001;SDS011;11667;51.706;4.856;2022-09-09T09:49:03;14.95;;;4.05;;
23001;SDS011;11667;51.706;4.856;2022-09-09T09:51:34;13.95;;;4.08;;
23001;SDS011;11667;51.706;4.856;2022-09-09T09:56:50;13.10;;;4.00;;
23001;SDS011;11667;51.706;4.856;2022-09-09T09:59:33;13.32;;;4.10;;
23001;SDS011;11667;51.706;4.856;2022-09-09T10:02:17;11.35;;;3.75;;
23001;SDS011;11667;51.706;4.856;2022-09-09T10:04:42;8.85;;;3.15;;
23001;SDS011;11667;51.706;4.856;2022-09-09T10:07:23;11.78;;;3.70;;
23001;SDS011;11667;51.706;4.856;2022-09-09T10:09:50;13.68;;;3.83;;
23001;SDS011;11667;51.706;4.856;2022-09-09T10:20:48;12.78;;;4.12;;
23001;SDS011;11667;51.706;4.856;2022-09-09T10:23:44;13.70;;;4.28;;
23001;SDS011;11667;51.706;4.856;2022-09-09T10:29:00;11.20;;;4.00;;
23001;SDS011;11667;51.706;4.856;2022-09-09T10:31:37;11.30;;;4.20;;
23001;SDS011;11667;51.706;4.856;2022-09-09T10:36:48;11.38;;;4.20;;
23001;SDS011;11667;51.706;4.856;2022-09-09T10:47:43;8.75;;;4.28;;
23001;SDS011;11667;51.706;4.856;2022-09-09T10:50:18;11.57;;;3.87;;
23001;SDS011;11667;51.706;4.856;2022-09-09T10:55:45;12.30;;;4.60;;
23001;SDS011;11667;51.706;4.856;2022-09-09T10:58:30;11.88;;;4.70;;
23001;SDS011;11667;51.706;4.856;2022-09-09T11:01:03;12.68;;;5.42;;
23001;SDS011;11667;51.706;4.856;2022-09-09T11:03:35;16.73;;;5.92;;
23001;SDS011;11667;51.706;4.856;2022-09-09T11:06:16;15.50;;;5.90;;
23001;SDS011;11667;51.706;4.856;2022-09-09T11:08:42;9.85;;;5.53;;
23001;SDS011;11667;51.706;4.856;2022-09-09T11:11:25;14.60;;;6.10;;
23001;SDS011;11667;51.706;4.856;2022-09-09T11:13:58;21.15;;;6.30;;
23001;SDS011;11667;51.706;4.856;2022-09-09T11:16:38;11.57;;;5.90;;
23001;SDS011;11667;51.706;4.856;2022-09-09T11:19:41;13.78;;;5.97;;
23001;SDS011;11667;51.706;4.856;2022-09-09T11:25:00;13.80;;;5.92;;
23001;SDS011;11667;51.706;4.856;2022-09-09T11:27:44;13.28;;;5.90;;
23001;SDS011;11667;51.706;4.856;2022-09-09T11:41:38;11.95;;;4.00;;
23001;SDS011;11667;51.706;4.856;2022-09-09T11:44:11;12.13;;;4.10;;
23001;SDS011;11667;51.706;4.856;2022-09-09T11:46:43;11.00;;;3.90;;
23001;SDS011;11667;51.706;4.856;2022-09-09T11:51:58;10.40;;;4.17;;
23001;SDS011;11667;51.706;4.856;2022-09-09T11:54:29;11.25;;;4.00;;
23001;SDS011;11667;51.706;4.856;2022-09-09T11:57:00;11.60;;;4.65;;
23001;SDS011;11667;51.706;4.856;2022-09-09T11:59:32;11.40;;;5.12;;
23001;SDS011;11667;51.706;4.856;2022-09-09T12:02:13;15.80;;;5.37;;
23001;SDS011;11667;51.706;4.856;2022-09-09T12:04:50;15.50;;;6.22;;
23001;SDS011;11667;51.706;4.856;2022-09-09T12:07:50;17.02;;;7.20;;
23001;SDS011;11667;51.706;4.856;2022-09-09T12:12:55;15.08;;;7.75;;
23001;SDS011;11667;51.706;4.856;2022-09-09T12:15:27;17.85;;;7.47;;
23001;SDS011;11667;51.706;4.856;2022-09-09T12:17:57;15.72;;;7.40;;
23001;SDS011;11667;51.706;4.856;2022-09-09T12:20:31;13.72;;;6.75;;
23001;SDS011;11667;51.706;4.856;2022-09-09T12:25:57;16.67;;;6.70;;
23001;SDS011;11667;51.706;4.856;2022-09-09T12:34:10;14.10;;;5.60;;
23001;SDS011;11667;51.706;4.856;2022-09-09T12:36:50;14.63;;;6.00;;
23001;SDS011;11667;51.706;4.856;2022-09-09T12:39:33;10.95;;;5.50;;
23001;SDS011;11667;51.706;4.856;2022-09-09T12:42:05;10.63;;;4.65;;
23001;SDS011;11667;51.706;4.856;2022-09-09T12:44:36;7.25;;;4.60;;
23001;SDS011;11667;51.706;4.856;2022-09-09T12:47:05;11.15;;;4.83;;
23001;SDS011;11667;51.706;4.856;2022-09-09T12:49:35;8.78;;;4.97;;
23001;SDS011;11667;51.706;4.856;2022-09-09T12:52:21;10.38;;;4.95;;
23001;SDS011;11667;51.706;4.856;2022-09-09T12:54:51;9.40;;;4.90;;
23001;SDS011;11667;51.706;4.856;2022-09-09T12:57:22;10.43;;;4.97;;
23001;SDS011;11667;51.706;4.856;2022-09-09T13:00:03;8.35;;;4.80;;
23001;SDS011;11667;51.706;4.856;2022-09-09T13:02:26;9.93;;;5.08;;
23001;SDS011;11667;51.706;4.856;2022-09-09T13:05:06;11.50;;;5.12;;
23001;SDS011;11667;51.706;4.856;2022-09-09T13:07:46;10.55;;;4.78;;
23001;SDS011;11667;51.706;4.856;2022-09-09T13:10:20;12.90;;;4.47;;
23001;SDS011;11667;51.706;4.856;2022-09-09T13:12:53;7.30;;;4.20;;
23001;SDS011;11667;51.706;4.856;2022-09-09T13:15:23;6.67;;;4.05;;
23001;SDS011;11667;51.706;4.856;2022-09-09T13:17:55;7.33;;;3.90;;
23001;SDS011;11667;51.706;4.856;2022-09-09T13:20:29;10.00;;;3.90;;
23001;SDS011;11667;51.706;4.856;2022-09-09T13:22:58;8.35;;;4.00;;
23001;SDS011;11667;51.706;4.856;2022-09-09T13:25:28;6.97;;;3.90;;
23001;SDS011;11667;51.706;4.856;2022-09-09T13:30:33;10.80;;;4.30;;
23001;SDS011;11667;51.706;4.856;2022-09-09T13:35:50;6.17;;;3.40;;
23001;SDS011;11667;51.706;4.856;2022-09-09T13:38:17;5.10;;;3.30;;
23001;SDS011;11667;51.706;4.856;2022-09-09T13:40:57;8.53;;;3.10;;
23001;SDS011;11667;51.706;4.856;2022-09-09T13:43:30;6.33;;;3.20;;
23001;SDS011;11667;51.706;4.856;2022-09-09T13:46:04;7.65;;;2.90;;
23001;SDS011;11667;51.706;4.856;2022-09-09T13:48:34;6.90;;;3.05;;
23001;SDS011;11667;51.706;4.856;2022-09-09T13:51:04;7.75;;;2.98;;
23001;SDS011;11667;51.706;4.856;2022-09-09T13:53:33;6.67;;;2.90;;
23001;SDS011;11667;51.706;4.856;2022-09-09T13:56:03;7.75;;;3.35;;
23001;SDS011;11667;51.706;4.856;2022-09-09T13:58:32;8.23;;;3.37;;
23001;SDS011;11667;51.706;4.856;2022-09-09T14:01:02;6.83;;;3.10;;
23001;SDS011;11667;51.706;4.856;2022-09-09T14:03:33;7.92;;;3.40;;
23001;SDS011;11667;51.706;4.856;2022-09-09T14:06:02;8.65;;;3.37;;
23001;SDS011;11667;51.706;4.856;2022-09-09T14:08:31;7.62;;;3.62;;
23001;SDS011;11667;51.706;4.856;2022-09-09T14:11:03;8.53;;;3.60;;
23001;SDS011;11667;51.706;4.856;2022-09-09T14:13:32;9.18;;;4.30;;
23001;SDS011;11667;51.706;4.856;2022-09-09T14:16:01;7.08;;;3.50;;
23001;SDS011;11667;51.706;4.856;2022-09-09T14:18:31;6.15;;;3.50;;
23001;SDS011;11667;51.706;4.856;2022-09-09T14:21:01;6.33;;;3.50;;
23001;SDS011;11667;51.706;4.856;2022-09-09T14:23:31;7.60;;;3.10;;
23001;SDS011;11667;51.706;4.856;2022-09-09T14:26:00;5.28;;;2.70;;
23001;SDS011;11667;51.706;4.856;2022-09-09T14:28:30;6.08;;;2.90;;
23001;SDS011;11667;51.706;4.856;2022-09-09T14:31:01;4.95;;;2.80;;
23001;SDS011;11667;51.706;4.856;2022-09-09T14:33:32;6.53;;;2.90;;
23001;SDS011;11667;51.706;4.856;2022-09-09T14:36:03;6.03;;;2.77;;
23001;SDS011;11667;51.706;4.856;2022-09-09T14:38:34;5.12;;;2.80;;
23001;SDS011;11667;51.706;4.856;2022-09-09T14:41:14;4.78;;;2.83;;
23001;SDS011;11667;51.706;4.856;2022-09-09T14:43:42;7.33;;;2.92;;
23001;SDS011;11667;51.706;4.856;2022-09-09T14:46:12;7.67;;;3.30;;
23001;SDS011;11667;51.706;4.856;2022-09-09T14:48:43;5.75;;;3.37;;
23001;SDS011;11667;51.706;4.856;2022-09-09T14:51:16;6.05;;;3.10;;
23001;SDS011;11667;51.706;4.856;2022-09-09T14:56:16;8.40;;;3.75;;
23001;SDS011;11667;51.706;4.856;2022-09-09T14:58:47;6.20;;;3.50;;
23001;SDS011;11667;51.706;4.856;2022-09-09T15:01:17;8.95;;;3.80;;
23001;SDS011;11667;51.706;4.856;2022-09-09T15:03:51;5.10;;;3.20;;
23001;SDS011;11667;51.706;4.856;2022-09-09T15:06:23;5.67;;;3.02;;
23001;SDS011;11667;51.706;4.856;2022-09-09T15:08:53;7.75;;;4.00;;
23001;SDS011;11667;51.706;4.856;2022-09-09T15:11:30;8.28;;;3.58;;
23001;SDS011;11667;51.706;4.856;2022-09-09T15:13:58;9.23;;;3.95;;
23001;SDS011;11667;51.706;4.856;2022-09-09T15:16:27;7.75;;;3.10;;
23001;SDS011;11667;51.706;4.856;2022-09-09T15:18:58;8.23;;;3.20;;
23001;SDS011;11667;51.706;4.856;2022-09-09T15:21:29;9.55;;;3.37;;
23001;SDS011;11667;51.706;4.856;2022-09-09T15:24:00;8.20;;;3.70;;
23001;SDS011;11667;51.706;4.856;2022-09-09T15:26:30;10.78;;;3.30;;
23001;SDS011;11667;51.706;4.856;2022-09-09T15:29:00;7.75;;;2.80;;
23001;SDS011;11667;51.706;4.856;2022-09-09T15:31:30;7.00;;;3.40;;
23001;SDS011;11667;51.706;4.856;2022-09-09T15:34:00;6.50;;;3.10;;
23001;SDS011;11667;51.706;4.856;2022-09-09T15:36:35;6.92;;;3.35;;
23001;SDS011;11667;51.706;4.856;2022-09-09T15:39:07;6.03;;;2.98;;
23001;SDS011;11667;51.706;4.856;2022-09-09T15:41:39;6.00;;;3.27;;
23001;SDS011;11667;51.706;4.856;2022-09-09T15:44:09;6.33;;;3.12;;
23001;SDS011;11667;51.706;4.856;2022-09-09T15:46:40;6.47;;;3.40;;
23001;SDS011;11667;51.706;4.856;2022-09-09T15:49:11;6.78;;;2.70;;
23001;SDS011;11667;51.706;4.856;2022-09-09T15:51:42;6.90;;;2.10;;
23001;SDS011;11667;51.706;4.856;2022-09-09T15:54:14;5.20;;;1.90;;
23001;SDS011;11667;51.706;4.856;2022-09-09T15:56:46;7.87;;;2.30;;
23001;SDS011;11667;51.706;4.856;2022-09-09T15:59:16;4.42;;;2.00;;
23001;SDS011;11667;51.706;4.856;2022-09-09T16:01:45;6.20;;;2.30;;
23001;SDS011;11667;51.706;4.856;2022-09-09T16:04:15;7.28;;;2.50;;
23001;SDS011;11667;51.706;4.856;2022-09-09T16:06:46;4.85;;;2.27;;
23001;SDS011;11667;51.706;4.856;2022-09-09T16:09:15;7.55;;;2.50;;
23001;SDS011;11667;51.706;4.856;2022-09-09T16:11:44;4.20;;;2.58;;
23001;SDS011;11667;51.706;4.856;2022-09-09T16:14:17;4.17;;;2.60;;
23001;SDS011;11667;51.706;4.856;2022-09-09T16:16:46;6.60;;;2.60;;
23001;SDS011;11667;51.706;4.856;2022-09-09T16:19:16;6.15;;;2.65;;
23001;SDS011;11667;51.706;4.856;2022-09-09T16:21:46;6.85;;;2.90;;
23001;SDS011;11667;51.706;4.856;2022-09-09T16:24:17;8.60;;;2.92;;
23001;SDS011;11667;51.706;4.856;2022-09-09T16:26:49;8.90;;;2.87;;
23001;SDS011;11667;51.706;4.856;2022-09-09T16:29:19;4.62;;;2.40;;
23001;SDS011;11667;51.706;4.856;2022-09-09T16:31:50;6.42;;;2.60;;
23001;SDS011;11667;51.706;4.856;2022-09-09T16:34:19;7.47;;;3.00;;
23001;SDS011;11667;51.706;4.856;2022-09-09T16:36:49;9.43;;;3.05;;
23001;SDS011;11667;51.706;4.856;2022-09-09T16:39:19;7.17;;;3.10;;
23001;SDS011;11667;51.706;4.856;2022-09-09T16:41:49;4.78;;;2.47;;
23001;SDS011;11667;51.706;4.856;2022-09-09T16:44:19;5.15;;;2.80;;
23001;SDS011;11667;51.706;4.856;2022-09-09T16:46:49;5.15;;;2.30;;
23001;SDS011;11667;51.706;4.856;2022-09-09T16:49:21;9.33;;;2.77;;
23001;SDS011;11667;51.706;4.856;2022-09-09T16:51:50;8.03;;;2.95;;
23001;SDS011;11667;51.706;4.856;2022-09-09T16:54:23;7.12;;;2.40;;
23001;SDS011;11667;51.706;4.856;2022-09-09T16:56:53;5.67;;;2.50;;
23001;SDS011;11667;51.706;4.856;2022-09-09T16:59:23;5.97;;;2.47;;
23001;SDS011;11667;51.706;4.856;2022-09-09T17:01:54;6.90;;;2.27;;
23001;SDS011;11667;51.706;4.856;2022-09-09T17:04:29;5.08;;;2.58;;
23001;SDS011;11667;51.706;4.856;2022-09-09T17:06:55;6.53;;;2.90;;
23001;SDS011;11667;51.706;4.856;2022-09-09T17:09:26;5.65;;;2.30;;
23001;SDS011;11667;51.706;4.856;2022-09-09T17:11:57;5.22;;;2.20;;
23001;SDS011;11667;51.706;4.856;2022-09-09T17:14:26;5.90;;;2.30;;
23001;SDS011;11667;51.706;4.856;2022-09-09T17:16:57;7.33;;;2.55;;
23001;SDS011;11667;51.706;4.856;2022-09-09T17:19:30;9.10;;;2.90;;
23001;SDS011;11667;51.706;4.856;2022-09-09T17:24:40;4.75;;;1.80;;